This is the latest recevied weather packets stored in our database for station/object VE3ZEB-1. If no packets are shown the sender has not sent any weather packets the latest 10 day(s).
| Time | Temp. | Humidity | Pressure | Rain* | Wind** | Luminosity | Snow |
|---|---|---|---|---|---|---|---|
| 1777900818 | 13.33° C | 69% | 679.6 hPa | 0 mm | - | 124 W/m² | - |
| 1777900218 | 12.78° C | 70% | 679.6 hPa | 0 mm | - | 113 W/m² | - |
| 1777897858 | 10.56° C | 76% | 679.5 hPa | 0 mm | - | 116 W/m² | - |
| 1777896038 | 9.44° C | 76% | 679.4 hPa | 0 mm | - | 78 W/m² | - |
| 1777890019 | 7.78° C | 76% | 679.4 hPa | 0 mm | - | 2 W/m² | - |
| 1777888819 | 7.78° C | 76% | 679.4 hPa | 0 mm | - | 0 W/m² | - |
| 1777876842 | 10° C | 67% | 679.5 hPa | 0 mm | - | 0 W/m² | - |
| 1777869024 | 10.56° C | 65% | 679.5 hPa | 0 mm | - | 0 W/m² | - |
| 1777866025 | 11.11° C | 61% | 679.5 hPa | 0 mm | - | 0 W/m² | - |
| 1777865425 | 11.67° C | 60% | 679.5 hPa | 0 mm | - | 0 W/m² | - |
| 1777862446 | 12.22° C | 59% | 679.6 hPa | 0 mm | - | 0 W/m² | - |
| 1777861226 | 12.22° C | 56% | 679.6 hPa | 0 mm | - | 0 W/m² | - |
| 1777859447 | 12.78° C | 53% | 679.6 hPa | 0 mm | - | 0 W/m² | - |
| 1777854648 | 13.33° C | 51% | 679.6 hPa | 0 mm | - | 1 W/m² | - |
| 1777854048 | 13.33° C | 50% | 679.6 hPa | 0 mm | - | 4 W/m² | - |
| 1777851048 | 14.44° C | 47% | 679.7 hPa | 0 mm | - | 27 W/m² | - |
| 1777849229 | 14.44° C | 47% | 679.7 hPa | 0 mm | - | 57 W/m² | - |
| 1777846229 | 14.44° C | 46% | 679.7 hPa | 0 mm | - | 54 W/m² | - |
| 1777839017 | 14.44° C | 48% | 679.7 hPa | 0 mm | - | 100 W/m² | - |
| 1777834232 | 15.56° C | 46% | 679.8 hPa | 0 mm | - | 308 W/m² | - |
| 1777829439 | 19.44° C | 35% | 679.9 hPa | 0 mm | - | 829 W/m² | - |
| 1777827019 | 19.44° C | 38% | 679.9 hPa | 0 mm | - | 810 W/m² | - |
| 1777824620 | 18.33° C | 39% | 679.8 hPa | 0 mm | - | 724 W/m² | - |
| 1777819821 | 13.33° C | 48% | 679.6 hPa | 0 mm | - | 385 W/m² | - |
| 1777817421 | 11.67° C | 53% | 679.5 hPa | 0 mm | - | 296 W/m² | - |
* Rain latest hour (hover to see other rain measurements)
** Current wind speed in m/s (hover to see current wind gust speed)